createdAt,value
2018-09-02T00:00:15.507Z,99.99
2018-09-02T00:01:15.537Z,99.99
2018-09-02T00:02:15.566Z,99.99
2018-09-02T00:03:15.596Z,99.99
2018-09-02T00:04:15.621Z,99.99
2018-09-02T00:05:15.651Z,99.99
2018-09-02T00:06:15.679Z,99.99
2018-09-02T00:07:15.706Z,99.99
2018-09-02T00:08:15.734Z,99.99
2018-09-02T00:09:15.766Z,99.99
2018-09-02T00:10:15.791Z,99.99
2018-09-02T00:11:15.820Z,99.99
2018-09-02T00:12:15.847Z,99.99
2018-09-02T00:13:15.875Z,99.99
2018-09-02T00:14:15.902Z,99.99
2018-09-02T00:15:15.933Z,99.99
2018-09-02T00:16:15.959Z,99.99
2018-09-02T00:17:15.989Z,99.99
2018-09-02T00:18:16.014Z,99.99
2018-09-02T00:19:16.042Z,99.99
2018-09-02T00:20:16.073Z,99.99
2018-09-02T00:21:16.098Z,99.99
2018-09-02T00:22:16.127Z,99.99
2018-09-02T00:23:16.157Z,99.99
2018-09-02T00:24:16.187Z,99.99
2018-09-02T00:25:16.214Z,99.99
2018-09-02T00:26:16.241Z,99.99
2018-09-02T00:27:16.268Z,99.99
2018-09-02T00:28:16.299Z,99.99
2018-09-02T00:29:16.324Z,99.99
2018-09-02T00:30:16.371Z,99.99
2018-09-02T00:31:16.382Z,99.99
2018-09-02T00:32:16.409Z,99.99
2018-09-02T00:33:16.541Z,99.99
2018-09-02T00:34:16.465Z,99.99
2018-09-02T00:35:16.497Z,99.99
2018-09-02T00:36:16.525Z,99.99
2018-09-02T00:37:16.552Z,99.99
2018-09-02T00:38:16.580Z,99.99
2018-09-02T00:39:16.607Z,99.99
2018-09-02T00:40:16.634Z,99.99
2018-09-02T00:41:16.662Z,99.99
2018-09-02T00:42:16.690Z,99.99
2018-09-02T00:43:16.719Z,99.99
2018-09-02T00:44:16.750Z,99.99
2018-09-02T00:45:16.777Z,99.99
2018-09-02T00:46:16.805Z,99.99
2018-09-02T00:47:16.835Z,99.99
2018-09-02T00:48:16.861Z,99.99
2018-09-02T00:49:16.889Z,99.99
2018-09-02T00:50:16.917Z,99.99
2018-09-02T00:51:16.943Z,99.99
2018-09-02T00:52:16.972Z,99.99
2018-09-02T00:53:17.001Z,99.99
2018-09-02T00:54:17.027Z,99.99
2018-09-02T00:55:17.055Z,99.99
2018-09-02T00:56:17.084Z,99.99
2018-09-02T00:57:17.111Z,99.99
2018-09-02T00:58:17.139Z,99.99
2018-09-02T00:59:17.171Z,99.99
2018-09-02T01:00:17.195Z,99.99
2018-09-02T01:01:17.225Z,99.99
2018-09-02T01:02:17.250Z,99.99
2018-09-02T01:03:17.280Z,99.99
2018-09-02T01:04:17.308Z,99.99
2018-09-02T01:05:17.337Z,99.99
2018-09-02T01:06:17.367Z,99.99
2018-09-02T01:07:17.396Z,99.99
2018-09-02T01:08:17.422Z,99.99
2018-09-02T01:09:17.452Z,99.99
2018-09-02T01:10:17.478Z,99.99
2018-09-02T01:11:17.506Z,99.99
2018-09-02T01:12:17.532Z,99.99
2018-09-02T01:13:17.561Z,99.99
2018-09-02T01:14:17.586Z,99.99
2018-09-02T01:15:17.618Z,99.99
2018-09-02T01:16:17.646Z,99.99
2018-09-02T01:17:17.677Z,99.99
2018-09-02T01:18:17.699Z,99.99
2018-09-02T01:19:17.730Z,99.99
2018-09-02T01:20:17.759Z,99.99
2018-09-02T01:21:17.786Z,99.99
2018-09-02T01:22:17.814Z,99.99
2018-09-02T01:23:17.841Z,99.99
2018-09-02T01:24:17.868Z,99.99
2018-09-02T01:25:17.897Z,99.99
2018-09-02T01:26:17.924Z,99.99
2018-09-02T01:27:17.954Z,99.99
2018-09-02T01:28:17.982Z,99.99
2018-09-02T01:29:18.008Z,99.99
2018-09-02T01:30:18.037Z,99.99
2018-09-02T01:31:18.063Z,99.99
2018-09-02T01:32:18.094Z,99.99
2018-09-02T01:33:18.120Z,99.99
2018-09-02T01:34:18.148Z,99.99
2018-09-02T01:35:18.177Z,99.99
2018-09-02T01:36:18.202Z,99.99
2018-09-02T01:37:18.230Z,99.99
2018-09-02T01:38:18.260Z,99.99
2018-09-02T01:39:18.293Z,99.99
2018-09-02T01:40:18.318Z,99.99
2018-09-02T01:41:18.344Z,99.99
2018-09-02T01:42:18.370Z,99.99
2018-09-02T01:43:18.398Z,99.99
2018-09-02T01:44:18.428Z,99.99
2018-09-02T01:45:18.455Z,99.99
2018-09-02T01:46:18.483Z,99.99
2018-09-02T01:47:18.512Z,99.99
2018-09-02T01:48:18.542Z,99.99
2018-09-02T01:49:18.567Z,99.99
2018-09-02T01:50:18.592Z,99.99
2018-09-02T01:51:18.622Z,99.99
2018-09-02T01:52:18.650Z,99.99
2018-09-02T01:53:18.677Z,99.99
2018-09-02T01:54:18.704Z,99.99
2018-09-02T01:55:18.735Z,99.99
2018-09-02T01:56:18.761Z,99.99
2018-09-02T01:57:18.790Z,99.99
2018-09-02T01:58:18.819Z,99.99
2018-09-02T01:59:18.846Z,99.99
2018-09-02T02:00:18.874Z,99.99
2018-09-02T02:01:18.902Z,99.99
2018-09-02T02:02:18.928Z,99.99
2018-09-02T02:03:18.955Z,99.99
2018-09-02T02:04:18.987Z,99.99
2018-09-02T02:05:19.016Z,99.99
2018-09-02T02:06:19.041Z,99.99
2018-09-02T02:07:19.072Z,99.99
2018-09-02T02:08:19.098Z,99.99
2018-09-02T02:09:19.123Z,99.99
2018-09-02T02:10:19.151Z,99.99
2018-09-02T02:11:19.178Z,99.99
2018-09-02T02:12:19.207Z,99.99
2018-09-02T02:13:19.235Z,99.99
2018-09-02T02:14:19.264Z,99.99
2018-09-02T02:15:19.294Z,99.99
2018-09-02T02:16:19.321Z,99.99
2018-09-02T02:17:19.345Z,99.99
2018-09-02T02:18:19.374Z,99.99
2018-09-02T02:19:19.402Z,99.99
2018-09-02T02:20:19.430Z,99.99
2018-09-02T02:21:19.459Z,99.99
2018-09-02T02:22:19.493Z,99.99
2018-09-02T02:23:19.514Z,99.99
2018-09-02T02:24:19.544Z,99.99
2018-09-02T02:25:19.572Z,99.99
2018-09-02T02:26:19.597Z,99.99
2018-09-02T02:27:19.626Z,99.99
2018-09-02T02:28:19.656Z,99.99
2018-09-02T02:29:19.681Z,99.99
2018-09-02T02:30:19.711Z,99.99
2018-09-02T02:31:19.737Z,99.99
2018-09-02T02:32:19.767Z,99.99
2018-09-02T02:33:19.798Z,99.99
2018-09-02T02:34:19.819Z,99.99
2018-09-02T02:35:19.851Z,99.99
2018-09-02T02:36:19.877Z,99.99
2018-09-02T02:37:19.905Z,99.99
2018-09-02T02:38:19.935Z,99.99
2018-09-02T02:39:19.959Z,99.99
2018-09-02T02:40:19.990Z,99.99
2018-09-02T02:41:20.021Z,99.99
2018-09-02T02:42:20.045Z,99.99
2018-09-02T02:43:20.071Z,99.99
2018-09-02T02:44:20.099Z,99.99
2018-09-02T02:45:20.126Z,99.99
2018-09-02T02:46:20.154Z,99.99
2018-09-02T02:47:20.182Z,99.99
2018-09-02T02:48:20.212Z,99.99
2018-09-02T02:49:20.237Z,99.99
2018-09-02T02:50:20.267Z,99.99
2018-09-02T02:51:20.293Z,99.99
2018-09-02T02:52:20.322Z,99.99
2018-09-02T02:53:20.349Z,99.99
2018-09-02T02:54:20.379Z,99.99
2018-09-02T02:55:20.410Z,99.99
2018-09-02T02:56:20.435Z,99.99
2018-09-02T02:57:20.510Z,99.99
2018-09-02T02:58:20.493Z,99.99
2018-09-02T02:59:20.515Z,99.99
2018-09-02T03:00:20.547Z,99.99
2018-09-02T03:01:20.574Z,99.99
2018-09-02T03:02:20.601Z,99.99
2018-09-02T03:03:20.628Z,99.99
2018-09-02T03:04:20.658Z,99.99
2018-09-02T03:05:20.682Z,99.99
2018-09-02T03:06:20.715Z,99.99
2018-09-02T03:07:20.737Z,99.99
2018-09-02T03:08:20.768Z,99.99
2018-09-02T03:09:20.795Z,99.99
2018-09-02T03:10:20.828Z,99.99
2018-09-02T03:11:20.857Z,99.99
2018-09-02T03:12:20.880Z,99.99
2018-09-02T03:13:20.905Z,99.99
2018-09-02T03:14:20.934Z,99.99
2018-09-02T03:15:20.961Z,99.99
2018-09-02T03:16:20.990Z,99.99
2018-09-02T03:17:21.018Z,99.99
2018-09-02T03:18:21.047Z,99.99
2018-09-02T03:19:21.077Z,99.99
2018-09-02T03:20:21.104Z,99.99
2018-09-02T03:21:21.129Z,99.99
2018-09-02T03:22:21.155Z,99.99
2018-09-02T03:23:21.183Z,99.99
2018-09-02T03:24:21.212Z,99.99
2018-09-02T03:25:21.241Z,99.99
2018-09-02T03:26:21.267Z,99.99
2018-09-02T03:27:21.297Z,99.99
2018-09-02T03:28:21.325Z,99.99
2018-09-02T03:29:21.351Z,99.99
2018-09-02T03:30:21.378Z,99.99
2018-09-02T03:31:21.412Z,99.99
2018-09-02T03:32:21.435Z,99.99
2018-09-02T03:33:21.466Z,99.99
2018-09-02T03:34:21.489Z,99.99
2018-09-02T03:35:21.519Z,99.99
2018-09-02T03:36:21.547Z,99.99
2018-09-02T03:37:21.574Z,99.99
2018-09-02T03:38:21.602Z,99.99
2018-09-02T03:39:21.630Z,99.99
2018-09-02T03:40:21.656Z,99.99
2018-09-02T03:41:21.685Z,99.99
2018-09-02T03:42:21.714Z,99.99
2018-09-02T03:43:21.742Z,99.99
2018-09-02T03:44:21.771Z,99.99
2018-09-02T03:45:21.796Z,99.99
2018-09-02T03:46:21.825Z,99.99
2018-09-02T03:47:21.850Z,99.99
2018-09-02T03:48:21.878Z,99.99
2018-09-02T03:49:21.908Z,99.99
2018-09-02T03:50:21.935Z,99.99
2018-09-02T03:51:21.966Z,99.99
2018-09-02T03:52:21.994Z,99.99
2018-09-02T03:53:22.019Z,99.99
2018-09-02T03:54:22.047Z,99.99
2018-09-02T03:55:22.075Z,99.99
2018-09-02T03:56:22.107Z,99.99
2018-09-02T03:57:22.128Z,99.99
2018-09-02T03:58:22.158Z,99.99
2018-09-02T03:59:22.186Z,99.99
2018-09-02T04:00:22.212Z,99.99
2018-09-02T04:01:22.242Z,99.99
2018-09-02T04:02:22.278Z,99.99
2018-09-02T04:03:22.294Z,99.99
2018-09-02T04:04:22.326Z,99.99
2018-09-02T04:05:22.350Z,99.99
2018-09-02T04:06:22.381Z,99.99
2018-09-02T04:07:22.410Z,99.99
2018-09-02T04:08:22.437Z,99.99
2018-09-02T04:09:22.465Z,99.99
2018-09-02T04:10:22.511Z,99.99
2018-09-02T04:11:22.559Z,99.99
2018-09-02T04:12:22.549Z,99.99
2018-09-02T04:13:22.574Z,99.99
2018-09-02T04:14:22.604Z,99.99
2018-09-02T04:15:22.630Z,99.99
2018-09-02T04:16:22.659Z,99.99
2018-09-02T04:17:22.688Z,99.99
2018-09-02T04:18:22.716Z,99.99
2018-09-02T04:19:22.742Z,99.99
2018-09-02T04:20:22.772Z,99.99
2018-09-02T04:21:22.799Z,99.99
2018-09-02T04:22:22.827Z,99.99
2018-09-02T04:23:22.852Z,99.99
2018-09-02T04:24:22.884Z,99.99
2018-09-02T04:25:22.909Z,99.99
2018-09-02T04:26:22.937Z,99.99
2018-09-02T04:27:22.968Z,99.99
2018-09-02T04:28:22.994Z,99.99
2018-09-02T04:29:23.021Z,99.99
2018-09-02T04:30:23.051Z,99.99
2018-09-02T04:31:23.079Z,99.99
2018-09-02T04:32:23.108Z,99.99
2018-09-02T04:33:23.135Z,99.99
2018-09-02T04:34:23.167Z,99.99
2018-09-02T04:35:23.189Z,99.99
2018-09-02T04:36:23.298Z,99.99
2018-09-02T04:37:23.246Z,99.99
2018-09-02T04:38:23.271Z,99.99
2018-09-02T04:39:23.299Z,99.99
2018-09-02T04:40:23.332Z,99.99
2018-09-02T04:41:23.357Z,99.99
2018-09-02T04:42:23.382Z,99.99
2018-09-02T04:43:23.410Z,99.99
2018-09-02T04:44:23.440Z,99.99
2018-09-02T04:45:23.608Z,99.99
2018-09-02T04:46:23.497Z,99.99
2018-09-02T04:47:23.527Z,99.99
2018-09-02T04:48:23.551Z,99.99
2018-09-02T04:49:23.578Z,99.99
2018-09-02T04:50:23.606Z,99.99
2018-09-02T04:51:23.634Z,99.99
2018-09-02T04:52:23.664Z,99.99
2018-09-02T04:53:23.689Z,99.99
2018-09-02T04:54:23.873Z,99.99
2018-09-02T04:55:23.748Z,99.99
2018-09-02T04:56:23.772Z,99.99
2018-09-02T04:57:23.807Z,99.99
2018-09-02T04:58:23.828Z,99.99
2018-09-02T04:59:23.859Z,99.99
2018-09-02T05:00:23.928Z,99.99
2018-09-02T05:01:23.914Z,99.99
2018-09-02T05:02:23.940Z,99.99
2018-09-02T05:03:23.971Z,99.99
2018-09-02T05:04:23.996Z,99.99
2018-09-02T05:05:24.023Z,99.99
2018-09-02T05:06:24.051Z,99.99
2018-09-02T05:07:24.080Z,99.99
2018-09-02T05:08:24.107Z,99.99
2018-09-02T05:09:24.137Z,99.99
2018-09-02T05:10:24.168Z,99.99
2018-09-02T05:11:24.196Z,99.99
2018-09-02T05:12:24.221Z,99.99
2018-09-02T05:13:24.245Z,99.99
2018-09-02T05:14:24.275Z,99.99
2018-09-02T05:15:24.304Z,99.99
2018-09-02T05:16:24.329Z,99.99
2018-09-02T05:17:24.359Z,99.99
2018-09-02T05:18:24.389Z,99.99
2018-09-02T05:19:24.413Z,99.99
2018-09-02T05:20:24.441Z,99.99
2018-09-02T05:21:24.468Z,99.99
2018-09-02T05:22:24.498Z,99.99
2018-09-02T05:23:24.525Z,99.99
2018-09-02T05:24:24.552Z,99.99
2018-09-02T05:25:24.579Z,99.99
2018-09-02T05:26:24.610Z,99.99
2018-09-02T05:27:24.635Z,99.99
2018-09-02T05:28:24.666Z,99.99
2018-09-02T05:29:24.693Z,99.99
2018-09-02T05:30:24.721Z,99.99
2018-09-02T05:31:24.747Z,99.99
2018-09-02T05:32:24.778Z,99.99
2018-09-02T05:33:24.803Z,99.99
2018-09-02T05:34:24.829Z,99.99
2018-09-02T05:35:24.860Z,99.99
2018-09-02T05:36:24.889Z,99.99
2018-09-02T05:37:24.913Z,99.99
2018-09-02T05:38:24.940Z,99.99
2018-09-02T05:39:24.969Z,99.99
2018-09-02T05:40:25.000Z,99.99
2018-09-02T05:41:25.026Z,99.99
2018-09-02T05:42:25.053Z,99.99
2018-09-02T05:43:25.083Z,99.99
2018-09-02T05:44:25.111Z,99.99
2018-09-02T05:45:25.138Z,99.99
2018-09-02T05:46:25.167Z,99.99
2018-09-02T05:47:25.201Z,99.99
2018-09-02T05:48:25.219Z,99.99
2018-09-02T05:49:25.248Z,99.99
2018-09-02T05:50:25.280Z,99.99
2018-09-02T05:51:25.306Z,99.99
2018-09-02T05:52:25.332Z,99.99
2018-09-02T05:53:25.363Z,99.99
2018-09-02T05:54:25.407Z,99.99
2018-09-02T05:55:25.416Z,99.99
2018-09-02T05:56:25.446Z,99.99
2018-09-02T05:57:25.482Z,99.99
2018-09-02T05:58:25.502Z,99.99
2018-09-02T05:59:25.529Z,99.99
2018-09-02T06:00:25.557Z,99.99
2018-09-02T06:01:25.582Z,99.99
2018-09-02T06:02:25.613Z,99.99
2018-09-02T06:03:25.638Z,99.99
2018-09-02T06:04:25.667Z,99.99
2018-09-02T06:05:25.696Z,99.99
2018-09-02T06:06:25.724Z,99.99
2018-09-02T06:07:25.753Z,99.99
2018-09-02T06:08:25.778Z,99.99
2018-09-02T06:09:25.810Z,99.99
2018-09-02T06:10:25.834Z,99.99
2018-09-02T06:11:25.865Z,99.99
2018-09-02T06:12:25.892Z,99.99
2018-09-02T06:13:25.923Z,99.99
2018-09-02T06:14:25.946Z,99.99
2018-09-02T06:15:25.974Z,99.99
2018-09-02T06:16:26.003Z,99.99
2018-09-02T06:17:26.173Z,99.99
2018-09-02T06:18:26.061Z,99.99
2018-09-02T06:19:26.090Z,99.99
2018-09-02T06:20:26.116Z,99.99
2018-09-02T06:21:26.145Z,99.99
2018-09-02T06:22:26.171Z,99.99
2018-09-02T06:23:26.204Z,99.99
2018-09-02T06:24:26.226Z,99.99
2018-09-02T06:25:26.258Z,99.99
2018-09-02T06:26:26.284Z,99.99
2018-09-02T06:27:26.313Z,99.99
2018-09-02T06:28:26.343Z,99.99
2018-09-02T06:29:26.370Z,99.99
2018-09-02T06:30:26.419Z,99.99
2018-09-02T06:31:26.427Z,99.87
2018-09-02T06:32:26.457Z,98.86
2018-09-02T06:33:26.486Z,98.00
2018-09-02T06:34:26.512Z,96.66
2018-09-02T06:35:26.559Z,95.65
2018-09-02T06:36:26.569Z,94.40
2018-09-02T06:38:57.269Z,92.77
2018-09-02T06:39:54.286Z,91.95
2018-09-02T06:40:54.318Z,91.52
2018-09-02T06:41:54.346Z,90.80
2018-09-02T06:42:54.380Z,90.51
2018-09-02T06:43:54.408Z,90.41
2018-09-02T06:44:54.435Z,89.26
2018-09-02T06:45:54.466Z,88.24
2018-09-02T06:46:54.500Z,87.19
2018-09-02T06:47:54.527Z,86.46
2018-09-02T06:48:54.558Z,84.73
2018-09-02T06:49:54.592Z,84.16
2018-09-02T06:50:54.622Z,84.06
2018-09-02T06:51:54.656Z,83.04
2018-09-02T06:52:54.685Z,81.70
2018-09-02T06:53:54.716Z,81.70
2018-09-02T06:54:54.745Z,80.92
2018-09-02T06:55:54.776Z,80.63
2018-09-02T06:56:54.810Z,79.96
2018-09-02T06:57:54.840Z,80.19
2018-09-02T06:58:54.875Z,80.00
2018-09-02T06:59:54.906Z,79.52
2018-09-02T07:00:54.941Z,79.58
2018-09-02T07:01:54.969Z,79.77
2018-09-02T07:02:55.001Z,78.81
2018-09-02T07:03:55.037Z,79.00
2018-09-02T07:04:55.066Z,79.67
2018-09-02T07:05:55.147Z,79.77
2018-09-02T07:06:55.134Z,78.33
2018-09-02T07:07:55.166Z,77.69
2018-09-02T07:08:55.199Z,77.21
2018-09-02T07:09:55.233Z,77.31
2018-09-02T07:10:55.264Z,75.80
2018-09-02T07:11:55.299Z,75.71
2018-09-02T07:12:55.328Z,75.61
2018-09-02T07:13:55.365Z,74.84
2018-09-02T07:14:55.398Z,74.07
2018-09-02T07:15:55.430Z,74.49
2018-09-02T07:16:55.466Z,74.30
2018-09-02T07:17:55.899Z,72.79
2018-09-02T07:18:56.135Z,72.47
2018-09-02T07:19:55.618Z,72.75
2018-09-02T07:20:55.597Z,72.66
2018-09-02T07:21:55.635Z,73.43
2018-09-02T07:22:55.664Z,72.47
2018-09-02T07:23:55.699Z,72.66
2018-09-02T07:24:55.735Z,72.47
2018-09-02T07:25:55.766Z,71.79
2018-09-02T07:26:55.802Z,71.79
2018-09-02T07:27:55.834Z,72.27
2018-09-02T07:28:55.874Z,71.73
2018-09-02T07:29:55.903Z,71.73
2018-09-02T07:30:55.937Z,70.70
2018-09-02T07:31:55.971Z,70.26
2018-09-02T07:32:56.010Z,69.78
2018-09-02T07:33:56.041Z,69.93
2018-09-02T07:34:56.078Z,69.97
2018-09-02T07:35:56.109Z,69.04
2018-09-02T07:36:56.145Z,68.07
2018-09-02T07:37:56.180Z,67.30
2018-09-02T07:38:56.220Z,67.59
2018-09-02T07:39:56.252Z,66.53
2018-09-02T07:40:56.285Z,66.56
2018-09-02T07:42:56.358Z,65.50
2018-09-02T07:43:56.424Z,65.14
2018-09-02T07:44:56.428Z,64.82
2018-09-02T07:45:56.470Z,64.72
2018-09-02T07:46:56.498Z,64.92
2018-09-02T07:47:56.532Z,64.43
2018-09-02T07:48:59.194Z,65.37
2018-09-02T07:49:56.604Z,65.20
2018-09-02T07:51:56.678Z,65.27
2018-09-02T07:52:56.714Z,64.50
2018-09-02T07:53:56.751Z,64.53
2018-09-02T07:54:56.787Z,63.28
2018-09-02T07:55:56.822Z,63.28
2018-09-02T07:56:56.859Z,63.11
2018-09-02T07:57:56.897Z,63.50
2018-09-02T07:58:56.929Z,61.98
2018-09-02T07:59:56.969Z,60.92
2018-09-02T08:00:57.004Z,60.66
2018-09-02T08:01:57.040Z,60.47
2018-09-02T08:02:57.074Z,59.43
2018-09-02T08:03:57.113Z,58.85
2018-09-02T08:04:57.148Z,58.49
2018-09-02T08:05:57.187Z,58.37
2018-09-02T08:06:57.221Z,58.85
2018-09-02T08:07:57.259Z,57.81
2018-09-02T08:08:57.296Z,58.69
2018-09-02T08:09:57.331Z,58.95
2018-09-02T08:10:57.368Z,59.33
2018-09-02T08:11:57.407Z,57.98
2018-09-02T08:12:57.646Z,57.88
2018-09-02T08:13:57.509Z,58.75
2018-09-02T08:14:57.518Z,58.17
2018-09-02T08:16:57.599Z,58.47
2018-09-02T08:17:57.630Z,58.17
2018-09-02T08:18:57.669Z,58.37
2018-09-02T08:20:57.744Z,56.85
2018-09-02T08:21:57.783Z,55.88
2018-09-02T08:22:57.819Z,56.68
2018-09-02T08:23:57.854Z,55.83
2018-09-02T08:24:57.890Z,54.96
2018-09-02T08:25:57.928Z,54.80
2018-09-02T08:26:57.967Z,53.66
2018-09-02T08:27:58.006Z,52.81
2018-09-02T08:28:58.053Z,52.98
2018-09-02T08:29:58.081Z,53.08
2018-09-02T08:30:58.117Z,53.27
2018-09-02T08:31:58.159Z,52.52
2018-09-02T08:32:58.247Z,52.40
2018-09-02T08:33:58.229Z,52.47
2018-09-02T08:34:58.271Z,53.17
2018-09-02T08:35:58.309Z,51.91
2018-09-02T08:36:58.347Z,52.66
2018-09-02T08:37:58.384Z,53.73
2018-09-02T08:38:58.427Z,52.86
2018-09-02T08:39:58.459Z,51.84
2018-09-02T08:40:58.498Z,51.75
2018-09-02T08:41:58.539Z,51.35
2018-09-02T08:42:58.575Z,51.26
2018-09-02T08:43:58.632Z,51.16
2018-09-02T08:44:58.651Z,50.96
2018-09-02T08:45:58.690Z,51.06
2018-09-02T08:46:58.734Z,50.58
2018-09-02T08:47:58.766Z,50.60
2018-09-02T08:48:58.805Z,50.77
2018-09-02T08:49:58.844Z,51.23
2018-09-02T08:50:58.885Z,52.03
2018-09-02T08:51:58.919Z,51.75
2018-09-02T08:52:58.960Z,51.14
2018-09-02T08:53:59.001Z,50.89
2018-09-02T08:54:59.040Z,51.04
2018-09-02T08:55:59.111Z,49.44
2018-09-02T08:56:59.118Z,48.88
2018-09-02T08:57:59.154Z,49.24
2018-09-02T08:58:59.196Z,49.02
2018-09-02T08:59:59.233Z,49.63
2018-09-02T09:00:59.269Z,48.95
2018-09-02T09:01:59.312Z,48.58
2018-09-02T09:02:59.395Z,47.27
2018-09-02T09:03:59.387Z,47.93
2018-09-02T09:04:59.428Z,46.96
2018-09-02T09:05:59.476Z,47.15
2018-09-02T09:06:59.509Z,47.05
2018-09-02T09:07:59.609Z,46.28
2018-09-02T09:08:59.760Z,47.05
2018-09-02T09:09:59.622Z,46.47
2018-09-02T09:10:59.664Z,45.89
2018-09-02T09:11:59.700Z,45.89
2018-09-02T09:12:59.742Z,46.35
2018-09-02T09:13:59.850Z,46.59
2018-09-02T09:14:59.822Z,45.94
2018-09-02T09:15:59.857Z,46.25
2018-09-02T09:16:59.956Z,47.20
2018-09-02T09:17:59.939Z,48.10
2018-09-02T09:18:59.978Z,46.67
2018-09-02T09:20:00.017Z,45.40
2018-09-02T09:21:00.054Z,45.31
2018-09-02T09:22:00.097Z,44.53
2018-09-02T09:23:00.137Z,44.14
2018-09-02T09:24:00.198Z,44.21
2018-09-02T09:25:00.872Z,43.85
2018-09-02T09:26:00.254Z,43.85
2018-09-02T09:27:00.294Z,44.02
2018-09-02T09:28:00.331Z,43.26
2018-09-02T09:29:00.373Z,43.09
2018-09-02T09:30:00.414Z,42.60
2018-09-02T09:31:00.451Z,42.99
2018-09-02T09:32:00.491Z,41.55
2018-09-02T09:33:00.529Z,41.36
2018-09-02T09:34:00.570Z,41.94
2018-09-02T09:35:00.608Z,41.09
2018-09-02T09:36:00.650Z,40.97
2018-09-02T09:37:00.690Z,41.24
2018-09-02T09:38:00.728Z,41.46
2018-09-02T09:39:00.767Z,40.66
2018-09-02T09:40:00.812Z,40.78
2018-09-02T09:41:00.852Z,40.39
2018-09-02T09:42:00.890Z,40.66
2018-09-02T09:43:00.929Z,40.39
2018-09-02T09:44:00.968Z,40.09
2018-09-02T09:45:01.008Z,39.82
2018-09-02T09:46:01.125Z,39.62
2018-09-02T09:47:01.086Z,38.95
2018-09-02T09:48:01.126Z,39.22
2018-09-02T09:49:01.164Z,39.70
2018-09-02T09:50:01.209Z,39.14
2018-09-02T09:51:01.245Z,39.51
2018-09-02T09:52:01.289Z,39.61
2018-09-02T09:53:01.329Z,40.48
2018-09-02T09:54:01.366Z,40.47
2018-09-02T09:55:01.406Z,39.98
2018-09-02T09:56:01.445Z,39.22
2018-09-02T09:57:01.482Z,39.80
2018-09-02T09:58:01.526Z,39.24
2018-09-02T09:59:01.574Z,38.65
2018-09-02T10:00:01.603Z,38.07
2018-09-02T10:01:01.640Z,37.41
2018-09-02T10:02:01.684Z,37.68
2018-09-02T10:03:01.722Z,37.29
2018-09-02T10:04:01.761Z,37.87
2018-09-02T10:05:01.801Z,38.17
2018-09-02T10:06:01.843Z,37.76
2018-09-02T10:07:01.882Z,38.05
2018-09-02T10:08:01.920Z,37.77
2018-09-02T10:09:01.962Z,38.44
2018-09-02T10:10:02.004Z,39.04
2018-09-02T10:11:02.043Z,37.77
2018-09-02T10:12:02.082Z,37.87
2018-09-02T10:13:02.117Z,37.04
2018-09-02T10:14:02.164Z,36.45
2018-09-02T10:15:02.198Z,36.08
2018-09-02T10:16:02.239Z,35.98
2018-09-02T10:17:02.281Z,35.86
2018-09-02T10:18:02.380Z,35.86
2018-09-02T10:19:02.358Z,36.45
2018-09-02T10:20:02.399Z,36.37
2018-09-02T10:21:02.437Z,36.16
2018-09-02T10:22:02.478Z,36.25
2018-09-02T10:23:02.520Z,36.14
2018-09-02T10:24:02.556Z,36.24
2018-09-02T10:25:02.598Z,36.14
2018-09-02T10:26:02.636Z,36.72
2018-09-02T10:27:02.677Z,36.08
2018-09-02T10:28:02.718Z,36.43
2018-09-02T10:29:02.755Z,35.96
2018-09-02T10:30:02.797Z,35.55
2018-09-02T10:31:02.834Z,35.96
2018-09-02T10:32:02.876Z,36.06
2018-09-02T10:33:02.914Z,35.77
2018-09-02T10:34:02.953Z,35.88
2018-09-02T10:35:02.994Z,35.49
2018-09-02T10:36:03.032Z,35.78
2018-09-02T10:37:03.075Z,35.59
2018-09-02T10:38:03.115Z,35.78
2018-09-02T10:39:03.154Z,35.22
2018-09-02T10:40:03.194Z,34.53
2018-09-02T10:41:03.306Z,35.12
2018-09-02T10:42:03.276Z,35.49
2018-09-02T10:43:03.311Z,36.08
2018-09-02T10:44:03.353Z,35.59
2018-09-02T10:45:03.392Z,36.00
2018-09-02T10:46:03.434Z,35.72
2018-09-02T10:47:03.471Z,34.75
2018-09-02T10:48:03.512Z,35.04
2018-09-02T10:49:03.554Z,34.42
2018-09-02T10:50:03.593Z,34.55
2018-09-02T10:51:03.635Z,34.16
2018-09-02T10:52:03.674Z,34.36
2018-09-02T10:53:03.712Z,34.71
2018-09-02T10:54:03.756Z,35.85
2018-09-02T10:55:03.796Z,36.06
2018-09-02T10:56:03.839Z,35.69
2018-09-02T10:57:03.875Z,34.84
2018-09-02T10:58:03.918Z,34.67
2018-09-02T11:00:31.630Z,34.26
2018-09-02T11:01:31.670Z,35.10
2018-09-02T11:02:31.715Z,35.39
2018-09-02T11:03:31.750Z,35.98
2018-09-02T11:05:19.368Z,35.88
2018-09-02T11:06:19.407Z,36.25
2018-09-02T11:07:19.448Z,35.88
2018-09-02T11:08:19.484Z,34.83
2018-09-02T11:09:19.528Z,35.34
2018-09-02T11:10:19.568Z,36.53
2018-09-02T11:11:19.605Z,36.22
2018-09-02T11:12:19.645Z,36.12
2018-09-02T11:13:19.761Z,36.04
2018-09-02T11:14:19.725Z,36.71
2018-09-02T11:15:19.766Z,36.14
2018-09-02T11:16:19.811Z,35.59
2018-09-02T11:17:19.848Z,35.38
2018-09-02T11:18:19.889Z,35.93
2018-09-02T11:19:19.929Z,37.10
2018-09-02T11:20:19.967Z,35.86
2018-09-02T11:21:20.005Z,35.57
2018-09-02T11:22:20.044Z,35.08
2018-09-02T11:23:20.086Z,34.45
2018-09-02T11:24:20.123Z,34.14
2018-09-02T11:25:20.167Z,34.73
2018-09-02T11:26:20.207Z,34.44
2018-09-02T11:27:20.247Z,34.89
2018-09-02T11:28:20.284Z,34.61
2018-09-02T11:29:20.323Z,34.18
2018-09-02T11:30:20.366Z,33.98
2018-09-02T11:31:20.403Z,33.97
2018-09-02T11:32:20.444Z,33.69
2018-09-02T11:33:20.485Z,32.91
2018-09-02T11:34:20.526Z,33.26
2018-09-02T11:35:20.565Z,34.63
2018-09-02T11:36:20.605Z,34.12
2018-09-02T11:37:20.643Z,34.31
2018-09-02T11:38:20.686Z,33.93
2018-09-02T11:39:20.723Z,34.05
2018-09-02T11:40:20.764Z,33.65
2018-09-02T11:41:20.805Z,34.12
2018-09-02T11:42:20.843Z,34.61
2018-09-02T11:43:20.886Z,35.02
2018-09-02T11:44:20.922Z,34.05
2018-09-02T11:45:20.963Z,33.75
2018-09-02T11:46:21.003Z,33.97
2018-09-02T11:47:21.044Z,33.75
2018-09-02T11:48:21.088Z,33.75
2018-09-02T11:49:21.122Z,33.38
2018-09-02T11:50:21.165Z,32.81
2018-09-02T11:51:21.203Z,33.75
2018-09-02T11:52:21.242Z,33.95
2018-09-02T11:53:21.284Z,33.95
2018-09-02T11:54:21.322Z,33.75
2018-09-02T11:55:21.365Z,34.53
2018-09-02T11:56:21.401Z,34.73
2018-09-02T11:57:21.443Z,34.42
2018-09-02T11:58:21.482Z,34.24
2018-09-02T11:59:21.523Z,34.16
2018-09-02T12:00:21.561Z,33.48
2018-09-02T12:01:21.606Z,33.36
2018-09-02T12:02:21.641Z,34.52
2018-09-02T12:03:21.681Z,34.97
2018-09-02T12:04:21.721Z,35.75
2018-09-02T12:05:21.763Z,35.57
2018-09-02T12:06:21.804Z,35.10
2018-09-02T12:07:21.842Z,34.81
2018-09-02T12:08:21.883Z,34.91
2018-09-02T12:09:21.920Z,34.91
2018-09-02T12:10:21.963Z,34.55
2018-09-02T12:11:22.000Z,34.34
2018-09-02T12:12:22.040Z,34.24
2018-09-02T12:13:22.080Z,34.53
2018-09-02T12:14:22.273Z,34.06
2018-09-02T12:15:22.160Z,33.48
2018-09-02T12:16:22.202Z,33.20
2018-09-02T12:17:22.242Z,33.67
2018-09-02T12:18:22.283Z,33.97
2018-09-02T12:19:22.322Z,34.06
2018-09-02T12:20:22.362Z,33.67
2018-09-02T12:21:22.402Z,33.11
2018-09-02T12:22:22.443Z,33.18
2018-09-02T12:23:22.479Z,32.99
2018-09-02T12:24:22.522Z,33.28
2018-09-02T12:25:22.562Z,32.81
2018-09-02T12:26:22.604Z,32.14
2018-09-02T12:27:22.639Z,32.16
2018-09-02T12:28:22.686Z,32.06
2018-09-02T12:29:22.720Z,32.06
2018-09-02T12:30:22.761Z,31.85
2018-09-02T12:31:22.810Z,32.16
2018-09-02T12:32:22.841Z,32.34
2018-09-02T12:33:22.881Z,32.81
2018-09-02T12:34:22.919Z,32.65
2018-09-02T12:35:22.959Z,32.82
2018-09-02T12:36:23.000Z,32.45
2018-09-02T12:37:23.042Z,32.53
2018-09-02T12:38:23.078Z,32.92
2018-09-02T12:39:23.117Z,33.11
2018-09-02T12:40:23.163Z,33.01
2018-09-02T12:41:23.198Z,32.32
2018-09-02T12:42:23.298Z,33.09
2018-09-02T12:43:23.279Z,33.18
2018-09-02T12:44:23.320Z,33.58
2018-09-02T12:45:23.359Z,33.93
2018-09-02T12:46:23.398Z,34.34
2018-09-02T12:47:23.437Z,34.53
2018-09-02T12:48:23.476Z,34.05
2018-09-02T12:49:23.517Z,33.95
2018-09-02T12:50:23.559Z,33.65
2018-09-02T12:51:23.598Z,33.38
2018-09-02T12:52:23.638Z,33.56
2018-09-02T12:53:23.676Z,34.22
2018-09-02T12:54:23.718Z,34.40
2018-09-02T12:55:23.827Z,34.61
2018-09-02T12:56:23.795Z,34.34
2018-09-02T12:57:23.837Z,33.95
2018-09-02T12:58:23.877Z,33.95
2018-09-02T12:59:23.915Z,33.95
2018-09-02T13:00:23.957Z,34.14